sensor_id;sensor_type;location;lat;lon;timestamp;temperature;humidity
7214;DHT22;3648;50.614;13.830;2022-08-05T00:02:06;23.90;1.00
7214;DHT22;3648;50.614;13.830;2022-08-05T00:04:33;23.80;1.00
7214;DHT22;3648;50.614;13.830;2022-08-05T00:07:00;23.70;1.00
7214;DHT22;3648;50.614;13.830;2022-08-05T00:09:27;23.70;1.00
7214;DHT22;3648;50.614;13.830;2022-08-05T00:11:54;23.70;1.00
7214;DHT22;3648;50.614;13.830;2022-08-05T00:14:21;23.60;1.00
7214;DHT22;3648;50.614;13.830;2022-08-05T00:16:53;23.60;1.00
7214;DHT22;3648;50.614;13.830;2022-08-05T00:19:20;23.50;1.00
7214;DHT22;3648;50.614;13.830;2022-08-05T00:21:47;23.50;1.00
7214;DHT22;3648;50.614;13.830;2022-08-05T00:24:14;23.40;1.00
7214;DHT22;3648;50.614;13.830;2022-08-05T00:26:41;23.30;1.00
7214;DHT22;3648;50.614;13.830;2022-08-05T00:29:08;23.30;1.00
7214;DHT22;3648;50.614;13.830;2022-08-05T00:31:35;23.30;1.00
7214;DHT22;3648;50.614;13.830;2022-08-05T00:34:03;23.20;1.00
7214;DHT22;3648;50.614;13.830;2022-08-05T00:36:31;23.20;1.00
7214;DHT22;3648;50.614;13.830;2022-08-05T00:38:58;23.10;1.00
7214;DHT22;3648;50.614;13.830;2022-08-05T00:41:29;23.00;1.00
7214;DHT22;3648;50.614;13.830;2022-08-05T00:43:56;22.90;1.00
7214;DHT22;3648;50.614;13.830;2022-08-05T00:46:24;22.90;1.00
7214;DHT22;3648;50.614;13.830;2022-08-05T00:48:51;22.90;1.00
7214;DHT22;3648;50.614;13.830;2022-08-05T00:51:21;22.90;1.00
7214;DHT22;3648;50.614;13.830;2022-08-05T00:53:48;22.90;1.00
7214;DHT22;3648;50.614;13.830;2022-08-05T00:56:16;22.90;1.00
7214;DHT22;3648;50.614;13.830;2022-08-05T00:58:43;22.80;1.00
7214;DHT22;3648;50.614;13.830;2022-08-05T01:01:11;22.70;1.00
7214;DHT22;3648;50.614;13.830;2022-08-05T01:03:40;22.60;1.00
7214;DHT22;3648;50.614;13.830;2022-08-05T01:06:08;22.60;1.00
7214;DHT22;3648;50.614;13.830;2022-08-05T01:08:37;22.60;1.00
7214;DHT22;3648;50.614;13.830;2022-08-05T01:11:08;22.50;1.00
7214;DHT22;3648;50.614;13.830;2022-08-05T01:13:41;22.50;1.00
7214;DHT22;3648;50.614;13.830;2022-08-05T01:16:13;22.40;1.00
7214;DHT22;3648;50.614;13.830;2022-08-05T01:18:46;22.40;1.00
7214;DHT22;3648;50.614;13.830;2022-08-05T01:21:28;22.40;1.00
7214;DHT22;3648;50.614;13.830;2022-08-05T01:24:12;22.40;1.00
7214;DHT22;3648;50.614;13.830;2022-08-05T01:26:55;22.40;1.00
7214;DHT22;3648;50.614;13.830;2022-08-05T01:29:31;22.40;1.00
7214;DHT22;3648;50.614;13.830;2022-08-05T01:32:02;22.40;1.00
7214;DHT22;3648;50.614;13.830;2022-08-05T01:34:34;22.30;1.00
7214;DHT22;3648;50.614;13.830;2022-08-05T01:37:06;22.20;1.00
7214;DHT22;3648;50.614;13.830;2022-08-05T01:39:35;22.20;1.00
7214;DHT22;3648;50.614;13.830;2022-08-05T01:42:04;22.20;1.00
7214;DHT22;3648;50.614;13.830;2022-08-05T01:44:34;22.10;1.00
7214;DHT22;3648;50.614;13.830;2022-08-05T01:47:01;22.10;1.00
7214;DHT22;3648;50.614;13.830;2022-08-05T01:49:29;22.10;1.00
7214;DHT22;3648;50.614;13.830;2022-08-05T01:51:58;22.10;1.00
7214;DHT22;3648;50.614;13.830;2022-08-05T01:54:31;22.10;1.00
7214;DHT22;3648;50.614;13.830;2022-08-05T01:56:59;22.10;1.00
7214;DHT22;3648;50.614;13.830;2022-08-05T01:59:27;22.00;1.00
7214;DHT22;3648;50.614;13.830;2022-08-05T02:01:57;22.00;1.00
7214;DHT22;3648;50.614;13.830;2022-08-05T02:04:27;21.90;1.00
7214;DHT22;3648;50.614;13.830;2022-08-05T02:06:55;21.90;1.00
7214;DHT22;3648;50.614;13.830;2022-08-05T02:09:23;21.80;1.00
7214;DHT22;3648;50.614;13.830;2022-08-05T02:11:58;21.80;1.00
7214;DHT22;3648;50.614;13.830;2022-08-05T02:14:31;21.80;1.00
7214;DHT22;3648;50.614;13.830;2022-08-05T02:17:04;21.80;1.00
7214;DHT22;3648;50.614;13.830;2022-08-05T02:19:34;21.80;1.00
7214;DHT22;3648;50.614;13.830;2022-08-05T02:22:07;21.80;1.00
7214;DHT22;3648;50.614;13.830;2022-08-05T02:24:37;21.80;1.00
7214;DHT22;3648;50.614;13.830;2022-08-05T02:27:08;21.70;1.00
7214;DHT22;3648;50.614;13.830;2022-08-05T02:29:36;21.60;1.00
7214;DHT22;3648;50.614;13.830;2022-08-05T02:32:07;21.40;1.00
7214;DHT22;3648;50.614;13.830;2022-08-05T02:34:36;21.50;1.00
7214;DHT22;3648;50.614;13.830;2022-08-05T02:37:04;21.50;1.00
7214;DHT22;3648;50.614;13.830;2022-08-05T02:39:35;21.40;1.00
7214;DHT22;3648;50.614;13.830;2022-08-05T02:42:04;21.30;1.00
7214;DHT22;3648;50.614;13.830;2022-08-05T02:44:35;21.30;1.00
7214;DHT22;3648;50.614;13.830;2022-08-05T02:47:05;21.40;1.00
7214;DHT22;3648;50.614;13.830;2022-08-05T02:49:36;21.40;1.00
7214;DHT22;3648;50.614;13.830;2022-08-05T02:52:08;21.40;1.00
7214;DHT22;3648;50.614;13.830;2022-08-05T02:54:36;21.40;1.00
7214;DHT22;3648;50.614;13.830;2022-08-05T02:57:06;21.30;1.00
7214;DHT22;3648;50.614;13.830;2022-08-05T02:59:34;21.30;1.00
7214;DHT22;3648;50.614;13.830;2022-08-05T03:02:01;21.20;1.00
7214;DHT22;3648;50.614;13.830;2022-08-05T03:04:30;21.20;1.00
7214;DHT22;3648;50.614;13.830;2022-08-05T03:06:59;21.30;1.00
7214;DHT22;3648;50.614;13.830;2022-08-05T03:09:26;21.20;1.00
7214;DHT22;3648;50.614;13.830;2022-08-05T03:11:53;21.20;1.00
7214;DHT22;3648;50.614;13.830;2022-08-05T03:14:20;21.20;1.00
7214;DHT22;3648;50.614;13.830;2022-08-05T03:16:47;21.10;1.00
7214;DHT22;3648;50.614;13.830;2022-08-05T03:19:14;21.00;1.00
7214;DHT22;3648;50.614;13.830;2022-08-05T03:21:41;21.00;1.00
7214;DHT22;3648;50.614;13.830;2022-08-05T03:24:10;21.00;1.00
7214;DHT22;3648;50.614;13.830;2022-08-05T03:26:37;21.00;1.00
7214;DHT22;3648;50.614;13.830;2022-08-05T03:29:05;21.00;1.00
7214;DHT22;3648;50.614;13.830;2022-08-05T03:31:32;21.00;1.00
7214;DHT22;3648;50.614;13.830;2022-08-05T03:33:59;21.00;1.00
7214;DHT22;3648;50.614;13.830;2022-08-05T03:36:26;21.00;1.00
7214;DHT22;3648;50.614;13.830;2022-08-05T03:38:53;21.00;1.00
7214;DHT22;3648;50.614;13.830;2022-08-05T03:41:22;21.00;1.00
7214;DHT22;3648;50.614;13.830;2022-08-05T03:43:49;21.00;1.00
7214;DHT22;3648;50.614;13.830;2022-08-05T03:46:16;21.00;1.00
7214;DHT22;3648;50.614;13.830;2022-08-05T03:48:43;21.00;1.00
7214;DHT22;3648;50.614;13.830;2022-08-05T03:51:12;21.00;1.00
7214;DHT22;3648;50.614;13.830;2022-08-05T03:53:46;21.00;1.00
7214;DHT22;3648;50.614;13.830;2022-08-05T03:56:19;21.00;1.00
7214;DHT22;3648;50.614;13.830;2022-08-05T03:58:50;21.00;1.00
7214;DHT22;3648;50.614;13.830;2022-08-05T04:01:20;21.00;1.00
7214;DHT22;3648;50.614;13.830;2022-08-05T04:03:49;21.00;1.00
7214;DHT22;3648;50.614;13.830;2022-08-05T04:06:17;20.90;1.00
7214;DHT22;3648;50.614;13.830;2022-08-05T04:08:45;20.90;1.00
7214;DHT22;3648;50.614;13.830;2022-08-05T04:11:12;20.90;1.00
7214;DHT22;3648;50.614;13.830;2022-08-05T04:13:40;20.90;1.00
7214;DHT22;3648;50.614;13.830;2022-08-05T04:16:10;20.80;1.00
7214;DHT22;3648;50.614;13.830;2022-08-05T04:18:38;20.80;1.00
7214;DHT22;3648;50.614;13.830;2022-08-05T04:21:06;20.80;1.00
7214;DHT22;3648;50.614;13.830;2022-08-05T04:23:34;20.70;1.00
7214;DHT22;3648;50.614;13.830;2022-08-05T04:26:02;20.70;1.00
7214;DHT22;3648;50.614;13.830;2022-08-05T04:28:29;20.60;1.00
7214;DHT22;3648;50.614;13.830;2022-08-05T04:30:56;20.60;1.00
7214;DHT22;3648;50.614;13.830;2022-08-05T04:33:25;20.60;1.00
7214;DHT22;3648;50.614;13.830;2022-08-05T04:35:52;20.60;1.00
7214;DHT22;3648;50.614;13.830;2022-08-05T04:38:19;20.50;1.00
7214;DHT22;3648;50.614;13.830;2022-08-05T04:40:46;20.50;1.00
7214;DHT22;3648;50.614;13.830;2022-08-05T04:43:13;20.50;1.00
7214;DHT22;3648;50.614;13.830;2022-08-05T04:45:40;20.50;1.00
7214;DHT22;3648;50.614;13.830;2022-08-05T04:48:08;20.50;1.00
7214;DHT22;3648;50.614;13.830;2022-08-05T04:50:42;20.50;1.00
7214;DHT22;3648;50.614;13.830;2022-08-05T04:53:10;20.50;1.00
7214;DHT22;3648;50.614;13.830;2022-08-05T04:55:38;20.60;1.00
7214;DHT22;3648;50.614;13.830;2022-08-05T04:58:06;20.50;1.00
7214;DHT22;3648;50.614;13.830;2022-08-05T05:00:33;20.60;1.00
7214;DHT22;3648;50.614;13.830;2022-08-05T05:03:00;20.60;1.00
7214;DHT22;3648;50.614;13.830;2022-08-05T05:05:27;20.60;1.00
7214;DHT22;3648;50.614;13.830;2022-08-05T05:07:59;20.70;1.00
7214;DHT22;3648;50.614;13.830;2022-08-05T05:10:27;20.70;1.00
7214;DHT22;3648;50.614;13.830;2022-08-05T05:12:54;20.70;1.00
7214;DHT22;3648;50.614;13.830;2022-08-05T05:15:21;20.70;1.00
7214;DHT22;3648;50.614;13.830;2022-08-05T05:17:47;20.70;1.00
7214;DHT22;3648;50.614;13.830;2022-08-05T05:54:00;21.30;1.00
7214;DHT22;3648;50.614;13.830;2022-08-05T05:56:27;21.30;1.00
7214;DHT22;3648;50.614;13.830;2022-08-05T05:58:55;21.40;1.00
7214;DHT22;3648;50.614;13.830;2022-08-05T06:01:22;21.50;1.00
7214;DHT22;3648;50.614;13.830;2022-08-05T06:03:49;21.60;1.00
7214;DHT22;3648;50.614;13.830;2022-08-05T06:06:16;21.70;1.00
7214;DHT22;3648;50.614;13.830;2022-08-05T06:08:43;21.70;1.00
7214;DHT22;3648;50.614;13.830;2022-08-05T06:11:11;21.80;1.00
7214;DHT22;3648;50.614;13.830;2022-08-05T06:13:38;21.90;1.00
7214;DHT22;3648;50.614;13.830;2022-08-05T06:16:05;22.00;1.00
7214;DHT22;3648;50.614;13.830;2022-08-05T06:18:33;22.00;1.00
7214;DHT22;3648;50.614;13.830;2022-08-05T06:21:02;22.10;1.00
7214;DHT22;3648;50.614;13.830;2022-08-05T06:23:29;22.20;1.00
7214;DHT22;3648;50.614;13.830;2022-08-05T06:25:56;22.30;1.00
7214;DHT22;3648;50.614;13.830;2022-08-05T06:28:24;22.30;1.00
7214;DHT22;3648;50.614;13.830;2022-08-05T06:30:52;22.40;1.00
7214;DHT22;3648;50.614;13.830;2022-08-05T06:33:19;22.50;1.00
7214;DHT22;3648;50.614;13.830;2022-08-05T06:35:46;22.60;1.00
7214;DHT22;3648;50.614;13.830;2022-08-05T06:38:13;22.60;1.00
7214;DHT22;3648;50.614;13.830;2022-08-05T06:40:42;22.70;1.00
7214;DHT22;3648;50.614;13.830;2022-08-05T06:43:09;22.90;1.00
7214;DHT22;3648;50.614;13.830;2022-08-05T06:45:37;23.00;1.00
7214;DHT22;3648;50.614;13.830;2022-08-05T06:48:04;23.10;1.00
7214;DHT22;3648;50.614;13.830;2022-08-05T06:50:31;23.30;1.00
7214;DHT22;3648;50.614;13.830;2022-08-05T06:52:58;23.50;1.00
7214;DHT22;3648;50.614;13.830;2022-08-05T06:55:26;23.60;1.00
7214;DHT22;3648;50.614;13.830;2022-08-05T06:57:53;23.70;1.00
7214;DHT22;3648;50.614;13.830;2022-08-05T07:00:20;23.70;1.00
7214;DHT22;3648;50.614;13.830;2022-08-05T07:02:48;23.80;1.00
7214;DHT22;3648;50.614;13.830;2022-08-05T07:05:15;23.90;1.00
7214;DHT22;3648;50.614;13.830;2022-08-05T07:07:43;24.00;1.00
7214;DHT22;3648;50.614;13.830;2022-08-05T07:10:13;24.10;1.00
7214;DHT22;3648;50.614;13.830;2022-08-05T07:12:40;24.20;1.00
7214;DHT22;3648;50.614;13.830;2022-08-05T07:15:25;24.20;1.00
7214;DHT22;3648;50.614;13.830;2022-08-05T07:18:10;24.30;1.00
7214;DHT22;3648;50.614;13.830;2022-08-05T07:20:38;24.40;1.00
7214;DHT22;3648;50.614;13.830;2022-08-05T07:23:05;24.50;1.00
7214;DHT22;3648;50.614;13.830;2022-08-05T07:25:32;24.50;1.00
7214;DHT22;3648;50.614;13.830;2022-08-05T07:27:59;24.60;1.00
7214;DHT22;3648;50.614;13.830;2022-08-05T07:30:26;24.70;1.00
7214;DHT22;3648;50.614;13.830;2022-08-05T07:32:53;24.80;1.00
7214;DHT22;3648;50.614;13.830;2022-08-05T07:35:22;24.90;1.00
7214;DHT22;3648;50.614;13.830;2022-08-05T07:37:49;25.00;1.00
7214;DHT22;3648;50.614;13.830;2022-08-05T07:40:16;25.10;1.00
7214;DHT22;3648;50.614;13.830;2022-08-05T07:42:44;25.20;1.00
7214;DHT22;3648;50.614;13.830;2022-08-05T07:45:11;25.20;1.00
7214;DHT22;3648;50.614;13.830;2022-08-05T07:47:41;25.40;1.00
7214;DHT22;3648;50.614;13.830;2022-08-05T07:50:09;25.50;1.00
7214;DHT22;3648;50.614;13.830;2022-08-05T07:52:39;25.60;1.00
7214;DHT22;3648;50.614;13.830;2022-08-05T07:55:07;25.70;1.00
7214;DHT22;3648;50.614;13.830;2022-08-05T07:57:34;25.70;1.00
7214;DHT22;3648;50.614;13.830;2022-08-05T08:00:02;25.90;1.00
7214;DHT22;3648;50.614;13.830;2022-08-05T08:02:30;26.00;1.00
7214;DHT22;3648;50.614;13.830;2022-08-05T08:04:57;26.10;1.00
7214;DHT22;3648;50.614;13.830;2022-08-05T08:07:24;26.20;1.00
7214;DHT22;3648;50.614;13.830;2022-08-05T08:09:53;26.30;1.00
7214;DHT22;3648;50.614;13.830;2022-08-05T08:12:20;26.40;1.00
7214;DHT22;3648;50.614;13.830;2022-08-05T08:14:47;26.60;1.00
7214;DHT22;3648;50.614;13.830;2022-08-05T08:17:14;26.60;1.00
7214;DHT22;3648;50.614;13.830;2022-08-05T08:19:42;26.70;1.00
7214;DHT22;3648;50.614;13.830;2022-08-05T08:22:10;26.80;1.00
7214;DHT22;3648;50.614;13.830;2022-08-05T08:24:37;26.90;1.00
7214;DHT22;3648;50.614;13.830;2022-08-05T08:27:06;26.90;1.00
7214;DHT22;3648;50.614;13.830;2022-08-05T08:29:33;27.00;1.00
7214;DHT22;3648;50.614;13.830;2022-08-05T08:32:00;27.10;1.00
7214;DHT22;3648;50.614;13.830;2022-08-05T08:34:27;27.10;1.00
7214;DHT22;3648;50.614;13.830;2022-08-05T08:36:54;27.20;1.00
7214;DHT22;3648;50.614;13.830;2022-08-05T08:39:21;27.20;1.00
7214;DHT22;3648;50.614;13.830;2022-08-05T08:41:50;27.30;1.00
7214;DHT22;3648;50.614;13.830;2022-08-05T08:44:22;27.40;1.00
7214;DHT22;3648;50.614;13.830;2022-08-05T08:46:50;27.50;1.00
7214;DHT22;3648;50.614;13.830;2022-08-05T08:49:19;27.70;1.00
7214;DHT22;3648;50.614;13.830;2022-08-05T08:51:56;27.70;1.00
7214;DHT22;3648;50.614;13.830;2022-08-05T08:54:24;27.80;1.00
7214;DHT22;3648;50.614;13.830;2022-08-05T08:56:51;27.90;1.00
7214;DHT22;3648;50.614;13.830;2022-08-05T08:59:20;28.20;1.00
7214;DHT22;3648;50.614;13.830;2022-08-05T09:01:48;28.40;1.00
7214;DHT22;3648;50.614;13.830;2022-08-05T09:04:19;28.70;1.00
7214;DHT22;3648;50.614;13.830;2022-08-05T09:06:46;29.20;1.00
7214;DHT22;3648;50.614;13.830;2022-08-05T09:09:14;29.50;1.00
7214;DHT22;3648;50.614;13.830;2022-08-05T09:11:41;30.00;1.00
7214;DHT22;3648;50.614;13.830;2022-08-05T09:14:10;30.40;1.00
7214;DHT22;3648;50.614;13.830;2022-08-05T09:16:39;30.90;1.00
7214;DHT22;3648;50.614;13.830;2022-08-05T09:19:06;31.20;1.00
7214;DHT22;3648;50.614;13.830;2022-08-05T09:21:34;31.60;1.00
7214;DHT22;3648;50.614;13.830;2022-08-05T09:24:03;32.00;99.90
7214;DHT22;3648;50.614;13.830;2022-08-05T09:26:33;32.20;99.90
7214;DHT22;3648;50.614;13.830;2022-08-05T09:29:03;32.40;99.90
7214;DHT22;3648;50.614;13.830;2022-08-05T09:31:31;32.50;99.90
7214;DHT22;3648;50.614;13.830;2022-08-05T09:34:02;32.80;99.90
7214;DHT22;3648;50.614;13.830;2022-08-05T09:36:41;33.10;99.90
7214;DHT22;3648;50.614;13.830;2022-08-05T09:39:10;33.40;99.90
7214;DHT22;3648;50.614;13.830;2022-08-05T09:41:55;33.70;99.90
7214;DHT22;3648;50.614;13.830;2022-08-05T09:44:37;33.90;99.90
7214;DHT22;3648;50.614;13.830;2022-08-05T09:47:09;34.20;99.90
7214;DHT22;3648;50.614;13.830;2022-08-05T09:49:46;34.10;99.90
7214;DHT22;3648;50.614;13.830;2022-08-05T09:52:32;34.40;99.90
7214;DHT22;3648;50.614;13.830;2022-08-05T09:55:00;34.60;99.90
7214;DHT22;3648;50.614;13.830;2022-08-05T09:57:29;34.60;99.90
7214;DHT22;3648;50.614;13.830;2022-08-05T10:00:00;34.60;99.90
7214;DHT22;3648;50.614;13.830;2022-08-05T10:02:33;34.70;99.90
7214;DHT22;3648;50.614;13.830;2022-08-05T10:05:10;34.70;99.90
7214;DHT22;3648;50.614;13.830;2022-08-05T10:07:50;34.90;99.90
7214;DHT22;3648;50.614;13.830;2022-08-05T10:10:19;34.90;99.90
7214;DHT22;3648;50.614;13.830;2022-08-05T10:12:47;35.30;99.90
7214;DHT22;3648;50.614;13.830;2022-08-05T10:15:33;35.30;99.90
7214;DHT22;3648;50.614;13.830;2022-08-05T10:18:07;35.40;99.90
7214;DHT22;3648;50.614;13.830;2022-08-05T10:20:39;35.60;99.90
7214;DHT22;3648;50.614;13.830;2022-08-05T10:23:06;35.60;99.90
7214;DHT22;3648;50.614;13.830;2022-08-05T10:25:33;35.80;99.90
7214;DHT22;3648;50.614;13.830;2022-08-05T10:28:00;35.80;99.90
7214;DHT22;3648;50.614;13.830;2022-08-05T10:30:28;35.90;99.90
7214;DHT22;3648;50.614;13.830;2022-08-05T10:32:56;36.00;99.90
7214;DHT22;3648;50.614;13.830;2022-08-05T10:35:24;35.90;99.90
7214;DHT22;3648;50.614;13.830;2022-08-05T10:37:54;35.50;99.90
7214;DHT22;3648;50.614;13.830;2022-08-05T10:40:28;35.50;99.90
7214;DHT22;3648;50.614;13.830;2022-08-05T10:43:01;35.50;99.90
7214;DHT22;3648;50.614;13.830;2022-08-05T10:45:30;35.30;99.90
7214;DHT22;3648;50.614;13.830;2022-08-05T10:47:57;35.30;99.90
7214;DHT22;3648;50.614;13.830;2022-08-05T10:50:24;35.30;99.90
7214;DHT22;3648;50.614;13.830;2022-08-05T10:52:52;35.30;99.90
7214;DHT22;3648;50.614;13.830;2022-08-05T10:55:22;35.20;99.90
7214;DHT22;3648;50.614;13.830;2022-08-05T10:58:05;35.20;99.90
7214;DHT22;3648;50.614;13.830;2022-08-05T11:00:34;35.00;99.90
7214;DHT22;3648;50.614;13.830;2022-08-05T11:03:11;35.10;99.90
7214;DHT22;3648;50.614;13.830;2022-08-05T11:05:39;35.10;99.90
7214;DHT22;3648;50.614;13.830;2022-08-05T11:08:09;35.20;99.90
7214;DHT22;3648;50.614;13.830;2022-08-05T11:10:37;35.30;99.90
7214;DHT22;3648;50.614;13.830;2022-08-05T11:13:07;35.30;99.90
7214;DHT22;3648;50.614;13.830;2022-08-05T11:15:36;35.20;99.90
7214;DHT22;3648;50.614;13.830;2022-08-05T11:18:08;35.00;99.90
7214;DHT22;3648;50.614;13.830;2022-08-05T11:20:43;35.00;99.90
7214;DHT22;3648;50.614;13.830;2022-08-05T11:23:35;35.00;99.90
7214;DHT22;3648;50.614;13.830;2022-08-05T11:26:07;35.00;99.90
7214;DHT22;3648;50.614;13.830;2022-08-05T11:28:45;35.00;99.90
7214;DHT22;3648;50.614;13.830;2022-08-05T11:31:24;34.90;99.90
7214;DHT22;3648;50.614;13.830;2022-08-05T11:34:01;34.90;99.90
7214;DHT22;3648;50.614;13.830;2022-08-05T11:36:40;35.10;99.90
7214;DHT22;3648;50.614;13.830;2022-08-05T11:39:10;34.80;99.90
7214;DHT22;3648;50.614;13.830;2022-08-05T11:41:38;34.90;99.90
7214;DHT22;3648;50.614;13.830;2022-08-05T11:44:07;35.10;99.90
7214;DHT22;3648;50.614;13.830;2022-08-05T11:46:39;35.20;99.90
7214;DHT22;3648;50.614;13.830;2022-08-05T11:49:07;35.30;99.90
7214;DHT22;3648;50.614;13.830;2022-08-05T11:51:40;35.40;99.90
7214;DHT22;3648;50.614;13.830;2022-08-05T11:54:07;35.40;99.90
7214;DHT22;3648;50.614;13.830;2022-08-05T11:56:44;35.40;99.90
7214;DHT22;3648;50.614;13.830;2022-08-05T11:59:15;35.30;99.90
7214;DHT22;3648;50.614;13.830;2022-08-05T12:01:53;35.40;99.90
7214;DHT22;3648;50.614;13.830;2022-08-05T12:04:20;35.40;99.90
7214;DHT22;3648;50.614;13.830;2022-08-05T12:06:48;35.40;99.90
7214;DHT22;3648;50.614;13.830;2022-08-05T12:09:17;35.40;99.90
7214;DHT22;3648;50.614;13.830;2022-08-05T12:11:47;35.50;99.90
7214;DHT22;3648;50.614;13.830;2022-08-05T12:14:15;35.60;99.90
7214;DHT22;3648;50.614;13.830;2022-08-05T12:16:43;35.60;99.90
7214;DHT22;3648;50.614;13.830;2022-08-05T12:19:12;35.60;99.90
7214;DHT22;3648;50.614;13.830;2022-08-05T12:21:45;35.60;99.90
7214;DHT22;3648;50.614;13.830;2022-08-05T12:24:14;35.60;99.90
7214;DHT22;3648;50.614;13.830;2022-08-05T12:26:44;35.50;99.90
7214;DHT22;3648;50.614;13.830;2022-08-05T12:29:14;35.60;99.90
7214;DHT22;3648;50.614;13.830;2022-08-05T12:31:45;35.50;99.90
7214;DHT22;3648;50.614;13.830;2022-08-05T12:34:12;35.50;99.90
7214;DHT22;3648;50.614;13.830;2022-08-05T12:36:40;35.30;99.90
7214;DHT22;3648;50.614;13.830;2022-08-05T12:39:07;35.30;99.90
7214;DHT22;3648;50.614;13.830;2022-08-05T12:41:36;35.20;99.90
7214;DHT22;3648;50.614;13.830;2022-08-05T12:44:05;35.10;99.90
7214;DHT22;3648;50.614;13.830;2022-08-05T12:46:35;35.00;99.90
7214;DHT22;3648;50.614;13.830;2022-08-05T12:49:05;34.70;99.90
7214;DHT22;3648;50.614;13.830;2022-08-05T12:51:43;34.60;99.90
7214;DHT22;3648;50.614;13.830;2022-08-05T12:54:17;34.40;99.90
7214;DHT22;3648;50.614;13.830;2022-08-05T12:56:48;34.20;99.90
7214;DHT22;3648;50.614;13.830;2022-08-05T12:59:17;34.10;99.90
7214;DHT22;3648;50.614;13.830;2022-08-05T13:01:53;34.00;99.90
7214;DHT22;3648;50.614;13.830;2022-08-05T13:04:21;33.90;99.90
7214;DHT22;3648;50.614;13.830;2022-08-05T13:06:48;33.80;99.90
7214;DHT22;3648;50.614;13.830;2022-08-05T13:09:16;33.60;99.90
7214;DHT22;3648;50.614;13.830;2022-08-05T13:11:43;33.60;99.90
7214;DHT22;3648;50.614;13.830;2022-08-05T13:14:15;33.80;99.90
7214;DHT22;3648;50.614;13.830;2022-08-05T13:16:52;33.70;99.90
7214;DHT22;3648;50.614;13.830;2022-08-05T13:19:22;33.80;99.90
7214;DHT22;3648;50.614;13.830;2022-08-05T13:21:50;33.90;99.90
7214;DHT22;3648;50.614;13.830;2022-08-05T13:24:17;34.00;99.90
7214;DHT22;3648;50.614;13.830;2022-08-05T13:26:46;34.00;99.90
7214;DHT22;3648;50.614;13.830;2022-08-05T13:29:13;33.90;99.90
7214;DHT22;3648;50.614;13.830;2022-08-05T13:31:41;33.90;99.90
7214;DHT22;3648;50.614;13.830;2022-08-05T13:34:10;33.90;99.90
7214;DHT22;3648;50.614;13.830;2022-08-05T13:36:37;34.00;99.90
7214;DHT22;3648;50.614;13.830;2022-08-05T13:39:05;34.00;99.90
7214;DHT22;3648;50.614;13.830;2022-08-05T13:41:32;34.10;99.90
7214;DHT22;3648;50.614;13.830;2022-08-05T13:43:59;34.20;99.90
7214;DHT22;3648;50.614;13.830;2022-08-05T13:46:26;34.30;99.90
7214;DHT22;3648;50.614;13.830;2022-08-05T13:48:53;34.40;99.90
7214;DHT22;3648;50.614;13.830;2022-08-05T13:51:32;34.50;99.90
7214;DHT22;3648;50.614;13.830;2022-08-05T13:53:59;34.50;99.90
7214;DHT22;3648;50.614;13.830;2022-08-05T13:56:26;34.60;99.90
7214;DHT22;3648;50.614;13.830;2022-08-05T13:58:53;34.60;99.90
7214;DHT22;3648;50.614;13.830;2022-08-05T14:01:21;34.60;99.90
7214;DHT22;3648;50.614;13.830;2022-08-05T14:03:48;34.60;99.90
7214;DHT22;3648;50.614;13.830;2022-08-05T14:06:30;34.60;99.90
7214;DHT22;3648;50.614;13.830;2022-08-05T14:08:58;34.60;99.90
7214;DHT22;3648;50.614;13.830;2022-08-05T14:11:26;34.60;99.90
7214;DHT22;3648;50.614;13.830;2022-08-05T14:13:53;34.80;99.90
7214;DHT22;3648;50.614;13.830;2022-08-05T14:16:20;34.70;99.90
7214;DHT22;3648;50.614;13.830;2022-08-05T14:18:47;34.80;99.90
7214;DHT22;3648;50.614;13.830;2022-08-05T14:21:14;34.70;99.90
7214;DHT22;3648;50.614;13.830;2022-08-05T14:23:43;34.70;99.90
7214;DHT22;3648;50.614;13.830;2022-08-05T14:26:09;34.60;99.90
7214;DHT22;3648;50.614;13.830;2022-08-05T14:28:37;34.60;99.90
7214;DHT22;3648;50.614;13.830;2022-08-05T14:31:04;34.60;99.90
7214;DHT22;3648;50.614;13.830;2022-08-05T14:33:31;34.50;99.90
7214;DHT22;3648;50.614;13.830;2022-08-05T14:35:58;34.40;99.90
7214;DHT22;3648;50.614;13.830;2022-08-05T14:38:26;34.20;99.90
7214;DHT22;3648;50.614;13.830;2022-08-05T14:40:55;34.00;99.90
7214;DHT22;3648;50.614;13.830;2022-08-05T14:43:22;34.00;99.90
7214;DHT22;3648;50.614;13.830;2022-08-05T14:45:49;33.80;99.90
7214;DHT22;3648;50.614;13.830;2022-08-05T14:48:16;33.70;99.90
7214;DHT22;3648;50.614;13.830;2022-08-05T14:50:43;33.70;99.90
7214;DHT22;3648;50.614;13.830;2022-08-05T14:53:10;33.50;99.90
7214;DHT22;3648;50.614;13.830;2022-08-05T14:55:38;33.50;99.90
7214;DHT22;3648;50.614;13.830;2022-08-05T14:58:08;33.50;99.90
7214;DHT22;3648;50.614;13.830;2022-08-05T15:00:35;33.40;99.90
7214;DHT22;3648;50.614;13.830;2022-08-05T15:03:03;33.40;99.90
7214;DHT22;3648;50.614;13.830;2022-08-05T15:05:32;33.50;99.90
7214;DHT22;3648;50.614;13.830;2022-08-05T15:07:59;33.50;99.90
7214;DHT22;3648;50.614;13.830;2022-08-05T15:10:26;33.50;99.90
7214;DHT22;3648;50.614;13.830;2022-08-05T15:12:53;33.50;99.90
7214;DHT22;3648;50.614;13.830;2022-08-05T15:15:22;33.50;99.90
7214;DHT22;3648;50.614;13.830;2022-08-05T15:17:49;33.50;99.90
7214;DHT22;3648;50.614;13.830;2022-08-05T15:20:17;33.50;99.90
7214;DHT22;3648;50.614;13.830;2022-08-05T15:22:44;33.50;99.90
7214;DHT22;3648;50.614;13.830;2022-08-05T15:25:11;33.50;99.90
7214;DHT22;3648;50.614;13.830;2022-08-05T15:27:38;33.60;99.90
7214;DHT22;3648;50.614;13.830;2022-08-05T15:30:06;33.50;99.90
7214;DHT22;3648;50.614;13.830;2022-08-05T15:32:34;33.60;99.90
7214;DHT22;3648;50.614;13.830;2022-08-05T15:35:05;33.60;99.90
7214;DHT22;3648;50.614;13.830;2022-08-05T15:37:32;33.50;99.90
7214;DHT22;3648;50.614;13.830;2022-08-05T15:39:59;33.50;99.90
7214;DHT22;3648;50.614;13.830;2022-08-05T15:42:27;33.50;99.90
7214;DHT22;3648;50.614;13.830;2022-08-05T15:44:53;33.60;99.90
7214;DHT22;3648;50.614;13.830;2022-08-05T15:47:20;33.40;99.90
7214;DHT22;3648;50.614;13.830;2022-08-05T15:49:50;33.40;99.90
7214;DHT22;3648;50.614;13.830;2022-08-05T15:52:17;33.30;99.90
7214;DHT22;3648;50.614;13.830;2022-08-05T15:54:44;33.30;99.90
7214;DHT22;3648;50.614;13.830;2022-08-05T15:57:11;33.30;99.90
7214;DHT22;3648;50.614;13.830;2022-08-05T15:59:39;33.30;99.90
7214;DHT22;3648;50.614;13.830;2022-08-05T16:02:06;33.30;99.90
7214;DHT22;3648;50.614;13.830;2022-08-05T16:04:33;33.50;99.90
7214;DHT22;3648;50.614;13.830;2022-08-05T16:07:02;33.60;99.90
7214;DHT22;3648;50.614;13.830;2022-08-05T16:09:29;33.60;99.90
7214;DHT22;3648;50.614;13.830;2022-08-05T16:11:56;33.70;99.90
7214;DHT22;3648;50.614;13.830;2022-08-05T16:14:23;33.70;99.90
7214;DHT22;3648;50.614;13.830;2022-08-05T16:16:50;33.60;99.90
7214;DHT22;3648;50.614;13.830;2022-08-05T16:19:18;33.70;99.90
7214;DHT22;3648;50.614;13.830;2022-08-05T16:21:45;33.60;99.90
7214;DHT22;3648;50.614;13.830;2022-08-05T16:24:13;33.60;99.90
7214;DHT22;3648;50.614;13.830;2022-08-05T16:26:50;33.60;99.90
7214;DHT22;3648;50.614;13.830;2022-08-05T16:29:18;33.50;99.90
7214;DHT22;3648;50.614;13.830;2022-08-05T16:31:46;33.50;99.90
7214;DHT22;3648;50.614;13.830;2022-08-05T16:34:13;33.50;99.90
7214;DHT22;3648;50.614;13.830;2022-08-05T16:36:40;33.40;99.90
7214;DHT22;3648;50.614;13.830;2022-08-05T16:39:07;33.40;99.90
7214;DHT22;3648;50.614;13.830;2022-08-05T16:41:36;33.30;99.90